sensor_id;sensor_type;location;lat;lon;timestamp;pressure;altitude;pressure_sealevel;temperature;humidity
9439;BME280;5176;42.622;25.386;2023-03-04T00:01:22;97278.94;;;6.09;100.00
9439;BME280;5176;42.622;25.386;2023-03-04T00:03:51;97278.22;;;6.05;100.00
9439;BME280;5176;42.622;25.386;2023-03-04T00:06:21;97263.63;;;6.03;100.00
9439;BME280;5176;42.622;25.386;2023-03-04T00:08:50;97267.91;;;6.04;100.00
9439;BME280;5176;42.622;25.386;2023-03-04T00:11:19;97264.38;;;6.05;100.00
9439;BME280;5176;42.622;25.386;2023-03-04T00:13:48;97253.06;;;6.06;100.00
9439;BME280;5176;42.622;25.386;2023-03-04T00:16:17;97259.94;;;6.07;100.00
9439;BME280;5176;42.622;25.386;2023-03-04T00:18:45;97266.22;;;6.03;100.00
9439;BME280;5176;42.622;25.386;2023-03-04T00:21:14;97268.19;;;5.97;100.00
9439;BME280;5176;42.622;25.386;2023-03-04T00:23:44;97263.88;;;5.96;100.00
9439;BME280;5176;42.622;25.386;2023-03-04T00:26:12;97263.09;;;5.94;100.00
9439;BME280;5176;42.622;25.386;2023-03-04T00:28:41;97262.50;;;5.88;100.00
9439;BME280;5176;42.622;25.386;2023-03-04T00:31:10;97266.81;;;5.89;100.00
9439;BME280;5176;42.622;25.386;2023-03-04T00:33:39;97265.94;;;5.88;100.00
9439;BME280;5176;42.622;25.386;2023-03-04T00:36:09;97263.28;;;5.90;100.00
9439;BME280;5176;42.622;25.386;2023-03-04T00:38:38;97235.34;;;5.74;100.00
9439;BME280;5176;42.622;25.386;2023-03-04T00:41:09;97262.31;;;5.92;100.00
9439;BME280;5176;42.622;25.386;2023-03-04T00:43:38;97257.13;;;5.92;100.00
9439;BME280;5176;42.622;25.386;2023-03-04T00:46:06;97260.56;;;5.93;100.00
9439;BME280;5176;42.622;25.386;2023-03-04T00:48:35;97255.25;;;5.96;100.00
9439;BME280;5176;42.622;25.386;2023-03-04T00:51:05;97257.03;;;5.94;100.00
9439;BME280;5176;42.622;25.386;2023-03-04T00:53:34;97255.09;;;5.99;100.00
9439;BME280;5176;42.622;25.386;2023-03-04T00:56:03;97253.31;;;5.99;100.00
9439;BME280;5176;42.622;25.386;2023-03-04T00:58:34;97255.72;;;6.04;100.00
9439;BME280;5176;42.622;25.386;2023-03-04T01:01:03;97254.97;;;6.02;100.00
9439;BME280;5176;42.622;25.386;2023-03-04T01:03:32;97248.00;;;6.03;100.00
9439;BME280;5176;42.622;25.386;2023-03-04T01:06:01;97244.41;;;6.05;100.00
9439;BME280;5176;42.622;25.386;2023-03-04T01:08:30;97252.22;;;6.05;100.00
9439;BME280;5176;42.622;25.386;2023-03-04T01:10:58;97245.16;;;6.07;100.00
9439;BME280;5176;42.622;25.386;2023-03-04T01:13:27;97244.13;;;6.11;100.00
9439;BME280;5176;42.622;25.386;2023-03-04T01:15:57;97248.41;;;6.12;100.00
9439;BME280;5176;42.622;25.386;2023-03-04T01:18:26;97241.44;;;6.13;100.00
9439;BME280;5176;42.622;25.386;2023-03-04T01:20:55;97236.88;;;6.18;100.00
9439;BME280;5176;42.622;25.386;2023-03-04T01:23:24;97234.19;;;6.19;100.00
9439;BME280;5176;42.622;25.386;2023-03-04T01:25:52;97232.50;;;6.18;100.00
9439;BME280;5176;42.622;25.386;2023-03-04T01:28:21;97234.84;;;6.24;100.00
9439;BME280;5176;42.622;25.386;2023-03-04T01:30:50;97238.06;;;6.30;100.00
9439;BME280;5176;42.622;25.386;2023-03-04T01:33:20;97236.31;;;6.30;100.00
9439;BME280;5176;42.622;25.386;2023-03-04T01:35:49;97228.34;;;6.33;100.00
9439;BME280;5176;42.622;25.386;2023-03-04T01:38:18;97230.88;;;6.35;100.00
9439;BME280;5176;42.622;25.386;2023-03-04T01:40:47;97229.09;;;6.35;100.00
9439;BME280;5176;42.622;25.386;2023-03-04T01:43:20;97229.97;;;6.36;100.00
9439;BME280;5176;42.622;25.386;2023-03-04T01:45:50;97233.44;;;6.36;100.00
9439;BME280;5176;42.622;25.386;2023-03-04T01:48:28;97230.75;;;6.38;100.00
9439;BME280;5176;42.622;25.386;2023-03-04T01:50:59;97235.19;;;6.36;100.00
9439;BME280;5176;42.622;25.386;2023-03-04T01:53:30;97224.97;;;6.31;100.00
9439;BME280;5176;42.622;25.386;2023-03-04T01:56:01;97232.91;;;6.28;100.00
9439;BME280;5176;42.622;25.386;2023-03-04T01:58:32;97227.78;;;6.26;100.00
9439;BME280;5176;42.622;25.386;2023-03-04T02:01:01;97228.03;;;6.22;100.00
9439;BME280;5176;42.622;25.386;2023-03-04T02:03:31;97226.59;;;6.15;100.00
9439;BME280;5176;42.622;25.386;2023-03-04T02:06:01;97198.75;;;5.98;100.00
9439;BME280;5176;42.622;25.386;2023-03-04T02:08:29;97226.03;;;6.08;100.00
9439;BME280;5176;42.622;25.386;2023-03-04T02:10:58;97221.06;;;6.04;100.00
9439;BME280;5176;42.622;25.386;2023-03-04T02:13:27;97217.81;;;5.98;100.00
9439;BME280;5176;42.622;25.386;2023-03-04T02:15:55;97216.25;;;5.94;100.00
9439;BME280;5176;42.622;25.386;2023-03-04T02:18:24;97220.78;;;5.91;100.00
9439;BME280;5176;42.622;25.386;2023-03-04T02:21:00;97220.03;;;5.87;100.00
9439;BME280;5176;42.622;25.386;2023-03-04T02:23:36;97219.44;;;5.81;100.00
9439;BME280;5176;42.622;25.386;2023-03-04T02:26:11;97222.78;;;5.84;100.00
9439;BME280;5176;42.622;25.386;2023-03-04T02:28:40;97218.75;;;5.77;100.00
9439;BME280;5176;42.622;25.386;2023-03-04T02:31:21;97229.94;;;5.79;100.00
9439;BME280;5176;42.622;25.386;2023-03-04T02:33:51;97224.66;;;5.81;100.00
9439;BME280;5176;42.622;25.386;2023-03-04T02:36:20;97217.84;;;5.78;100.00
9439;BME280;5176;42.622;25.386;2023-03-04T02:38:49;97229.84;;;5.81;100.00
9439;BME280;5176;42.622;25.386;2023-03-04T02:41:23;97227.34;;;5.79;100.00
9439;BME280;5176;42.622;25.386;2023-03-04T02:43:54;97234.38;;;5.77;100.00
9439;BME280;5176;42.622;25.386;2023-03-04T02:46:23;97225.78;;;5.75;100.00
9439;BME280;5176;42.622;25.386;2023-03-04T02:48:51;97233.53;;;5.77;100.00
9439;BME280;5176;42.622;25.386;2023-03-04T02:51:20;97234.38;;;5.77;100.00
9439;BME280;5176;42.622;25.386;2023-03-04T02:53:49;97235.13;;;5.79;100.00
9439;BME280;5176;42.622;25.386;2023-03-04T02:56:18;97230.94;;;5.77;100.00
9439;BME280;5176;42.622;25.386;2023-03-04T02:58:48;97230.00;;;5.78;100.00
9439;BME280;5176;42.622;25.386;2023-03-04T03:01:17;97228.25;;;5.78;100.00
9439;BME280;5176;42.622;25.386;2023-03-04T03:03:45;97224.03;;;5.76;100.00
9439;BME280;5176;42.622;25.386;2023-03-04T03:06:14;97237.03;;;5.76;100.00
9439;BME280;5176;42.622;25.386;2023-03-04T03:08:42;97222.91;;;5.81;100.00
9439;BME280;5176;42.622;25.386;2023-03-04T03:11:11;97219.53;;;5.79;100.00
9439;BME280;5176;42.622;25.386;2023-03-04T03:13:40;97226.28;;;5.83;100.00
9439;BME280;5176;42.622;25.386;2023-03-04T03:16:10;97228.91;;;5.83;100.00
9439;BME280;5176;42.622;25.386;2023-03-04T03:18:38;97218.63;;;5.80;100.00
9439;BME280;5176;42.622;25.386;2023-03-04T03:21:07;97220.28;;;5.81;100.00
9439;BME280;5176;42.622;25.386;2023-03-04T03:23:36;97221.22;;;5.80;100.00
9439;BME280;5176;42.622;25.386;2023-03-04T03:26:05;97220.25;;;5.83;100.00
9439;BME280;5176;42.622;25.386;2023-03-04T03:28:34;97222.97;;;5.80;100.00
9439;BME280;5176;42.622;25.386;2023-03-04T03:31:03;97225.47;;;5.83;100.00
9439;BME280;5176;42.622;25.386;2023-03-04T03:33:33;97229.75;;;5.84;100.00
9439;BME280;5176;42.622;25.386;2023-03-04T03:36:02;97230.44;;;5.87;100.00
9439;BME280;5176;42.622;25.386;2023-03-04T03:38:31;97235.72;;;5.86;100.00
9439;BME280;5176;42.622;25.386;2023-03-04T03:40:59;97229.66;;;5.85;100.00
9439;BME280;5176;42.622;25.386;2023-03-04T03:43:28;97240.00;;;5.87;100.00
9439;BME280;5176;42.622;25.386;2023-03-04T03:45:56;97243.41;;;5.89;100.00
9439;BME280;5176;42.622;25.386;2023-03-04T03:48:26;97249.56;;;5.86;100.00
9439;BME280;5176;42.622;25.386;2023-03-04T03:50:56;97251.47;;;5.83;100.00
9439;BME280;5176;42.622;25.386;2023-03-04T03:53:25;97244.50;;;5.83;100.00
9439;BME280;5176;42.622;25.386;2023-03-04T03:55:54;97252.22;;;5.85;100.00
9439;BME280;5176;42.622;25.386;2023-03-04T03:58:22;97252.31;;;5.83;100.00
9439;BME280;5176;42.622;25.386;2023-03-04T04:00:52;97250.63;;;5.82;100.00
9439;BME280;5176;42.622;25.386;2023-03-04T04:03:21;97250.47;;;5.85;100.00
9439;BME280;5176;42.622;25.386;2023-03-04T04:05:49;97250.53;;;5.84;100.00
9439;BME280;5176;42.622;25.386;2023-03-04T04:08:20;97251.31;;;5.86;100.00
9439;BME280;5176;42.622;25.386;2023-03-04T04:10:49;97246.88;;;5.88;100.00
9439;BME280;5176;42.622;25.386;2023-03-04T04:13:17;97251.59;;;5.80;100.00
9439;BME280;5176;42.622;25.386;2023-03-04T04:15:46;97245.47;;;5.62;100.00
9439;BME280;5176;42.622;25.386;2023-03-04T04:18:15;97245.06;;;5.51;100.00
9439;BME280;5176;42.622;25.386;2023-03-04T04:20:44;97248.38;;;5.54;100.00
9439;BME280;5176;42.622;25.386;2023-03-04T04:23:12;97240.66;;;5.53;100.00
9439;BME280;5176;42.622;25.386;2023-03-04T04:25:43;97239.72;;;5.54;100.00
9439;BME280;5176;42.622;25.386;2023-03-04T04:28:12;97241.28;;;5.58;100.00
9439;BME280;5176;42.622;25.386;2023-03-04T04:30:40;97248.19;;;5.59;100.00
9439;BME280;5176;42.622;25.386;2023-03-04T04:33:09;97231.88;;;5.55;100.00
9439;BME280;5176;42.622;25.386;2023-03-04T04:35:38;97241.47;;;5.53;100.00
9439;BME280;5176;42.622;25.386;2023-03-04T04:38:08;97244.00;;;5.55;100.00
9439;BME280;5176;42.622;25.386;2023-03-04T04:40:37;97252.38;;;5.61;100.00
9439;BME280;5176;42.622;25.386;2023-03-04T04:43:07;97243.63;;;5.64;100.00
9439;BME280;5176;42.622;25.386;2023-03-04T04:45:36;97245.25;;;5.66;100.00
9439;BME280;5176;42.622;25.386;2023-03-04T04:48:06;97249.59;;;5.66;100.00
9439;BME280;5176;42.622;25.386;2023-03-04T04:50:35;97247.91;;;5.65;100.00
9439;BME280;5176;42.622;25.386;2023-03-04T04:53:04;97253.88;;;5.67;100.00
9439;BME280;5176;42.622;25.386;2023-03-04T04:55:33;97254.69;;;5.69;100.00
9439;BME280;5176;42.622;25.386;2023-03-04T04:58:04;97261.69;;;5.67;100.00
9439;BME280;5176;42.622;25.386;2023-03-04T05:00:34;97265.94;;;5.69;100.00
9439;BME280;5176;42.622;25.386;2023-03-04T05:03:03;97263.38;;;5.68;100.00
9439;BME280;5176;42.622;25.386;2023-03-04T05:05:31;97264.94;;;5.72;100.00
9439;BME280;5176;42.622;25.386;2023-03-04T05:08:00;97264.94;;;5.72;100.00
9439;BME280;5176;42.622;25.386;2023-03-04T05:10:28;97266.69;;;5.71;100.00
9439;BME280;5176;42.622;25.386;2023-03-04T05:12:57;97254.69;;;5.69;100.00
9439;BME280;5176;42.622;25.386;2023-03-04T05:15:25;97262.97;;;5.77;100.00
9439;BME280;5176;42.622;25.386;2023-03-04T05:17:55;97265.44;;;5.80;100.00
9439;BME280;5176;42.622;25.386;2023-03-04T05:20:24;97262.75;;;5.82;100.00
9439;BME280;5176;42.622;25.386;2023-03-04T05:22:53;97263.56;;;5.84;100.00
9439;BME280;5176;42.622;25.386;2023-03-04T05:25:22;97271.13;;;5.88;100.00
9439;BME280;5176;42.622;25.386;2023-03-04T05:27:51;97266.72;;;5.90;100.00
9439;BME280;5176;42.622;25.386;2023-03-04T05:30:20;97260.72;;;5.88;100.00
9439;BME280;5176;42.622;25.386;2023-03-04T05:32:49;97267.53;;;5.92;100.00
9439;BME280;5176;42.622;25.386;2023-03-04T05:35:20;97270.91;;;5.94;100.00
9439;BME280;5176;42.622;25.386;2023-03-04T05:37:48;97261.13;;;5.99;100.00
9439;BME280;5176;42.622;25.386;2023-03-04T05:40:17;97270.50;;;6.04;100.00
9439;BME280;5176;42.622;25.386;2023-03-04T05:42:45;97269.72;;;6.01;100.00
9439;BME280;5176;42.622;25.386;2023-03-04T05:45:14;97269.66;;;6.03;100.00
9439;BME280;5176;42.622;25.386;2023-03-04T05:47:43;97266.16;;;6.04;100.00
9439;BME280;5176;42.622;25.386;2023-03-04T05:50:12;97268.47;;;6.10;100.00
9439;BME280;5176;42.622;25.386;2023-03-04T05:52:42;97269.22;;;6.12;100.00
9439;BME280;5176;42.622;25.386;2023-03-04T05:55:11;97275.00;;;6.19;100.00
9439;BME280;5176;42.622;25.386;2023-03-04T05:57:40;97268.75;;;6.23;100.00
9439;BME280;5176;42.622;25.386;2023-03-04T06:00:11;97273.53;;;6.32;100.00
9439;BME280;5176;42.622;25.386;2023-03-04T06:02:40;97274.28;;;6.34;100.00
9439;BME280;5176;42.622;25.386;2023-03-04T06:05:10;97272.47;;;6.36;100.00
9439;BME280;5176;42.622;25.386;2023-03-04T06:07:39;97265.44;;;6.38;100.00
9439;BME280;5176;42.622;25.386;2023-03-04T06:10:12;97267.88;;;6.41;100.00
9439;BME280;5176;42.622;25.386;2023-03-04T06:12:41;97265.28;;;6.41;100.00
9439;BME280;5176;42.622;25.386;2023-03-04T06:15:10;97270.44;;;6.43;100.00
9439;BME280;5176;42.622;25.386;2023-03-04T06:17:40;97268.88;;;6.39;100.00
9439;BME280;5176;42.622;25.386;2023-03-04T06:20:10;97283.50;;;6.41;100.00
9439;BME280;5176;42.622;25.386;2023-03-04T06:22:39;97288.03;;;6.38;100.00
9439;BME280;5176;42.622;25.386;2023-03-04T06:25:08;97281.34;;;6.32;100.00
9439;BME280;5176;42.622;25.386;2023-03-04T06:27:38;97284.22;;;6.26;100.00
9439;BME280;5176;42.622;25.386;2023-03-04T06:30:08;97288.38;;;6.30;100.00
9439;BME280;5176;42.622;25.386;2023-03-04T06:32:36;97285.41;;;6.38;100.00
9439;BME280;5176;42.622;25.386;2023-03-04T06:35:06;97291.28;;;6.43;100.00
9439;BME280;5176;42.622;25.386;2023-03-04T06:37:35;97294.44;;;6.49;100.00
9439;BME280;5176;42.622;25.386;2023-03-04T06:40:05;97296.44;;;6.62;100.00
9439;BME280;5176;42.622;25.386;2023-03-04T06:42:34;97294.72;;;6.79;100.00
9439;BME280;5176;42.622;25.386;2023-03-04T06:45:06;97295.84;;;6.93;100.00
9439;BME280;5176;42.622;25.386;2023-03-04T06:47:35;97296.63;;;7.12;100.00
9439;BME280;5176;42.622;25.386;2023-03-04T06:50:05;97290.97;;;7.38;100.00
9439;BME280;5176;42.622;25.386;2023-03-04T06:52:33;97304.38;;;7.65;100.00
9439;BME280;5176;42.622;25.386;2023-03-04T06:55:03;97300.66;;;7.87;100.00
9439;BME280;5176;42.622;25.386;2023-03-04T06:57:32;97307.94;;;7.98;100.00
9439;BME280;5176;42.622;25.386;2023-03-04T07:00:01;97301.34;;;7.90;100.00
9439;BME280;5176;42.622;25.386;2023-03-04T07:02:32;97315.38;;;7.88;100.00
9439;BME280;5176;42.622;25.386;2023-03-04T07:05:00;97298.97;;;7.86;100.00
9439;BME280;5176;42.622;25.386;2023-03-04T07:07:29;97288.69;;;7.50;100.00
9439;BME280;5176;42.622;25.386;2023-03-04T07:09:58;97296.50;;;7.50;100.00
9439;BME280;5176;42.622;25.386;2023-03-04T07:12:26;97300.84;;;7.67;100.00
9439;BME280;5176;42.622;25.386;2023-03-04T07:14:55;97303.06;;;7.74;100.00
9439;BME280;5176;42.622;25.386;2023-03-04T07:17:24;97290.84;;;7.92;100.00
9439;BME280;5176;42.622;25.386;2023-03-04T07:19:54;97293.53;;;7.90;100.00
9439;BME280;5176;42.622;25.386;2023-03-04T07:22:22;97303.03;;;7.91;100.00
9439;BME280;5176;42.622;25.386;2023-03-04T07:24:51;97302.53;;;8.01;100.00
9439;BME280;5176;42.622;25.386;2023-03-04T07:27:19;97301.38;;;8.06;100.00
9439;BME280;5176;42.622;25.386;2023-03-04T07:29:48;97299.28;;;8.13;100.00
9439;BME280;5176;42.622;25.386;2023-03-04T07:32:16;97291.38;;;8.14;100.00
9439;BME280;5176;42.622;25.386;2023-03-04T07:34:45;97292.06;;;8.18;100.00
9439;BME280;5176;42.622;25.386;2023-03-04T07:37:15;97296.44;;;8.17;100.00
9439;BME280;5176;42.622;25.386;2023-03-04T07:39:44;97296.97;;;8.24;100.00
9439;BME280;5176;42.622;25.386;2023-03-04T07:42:12;97302.09;;;8.26;100.00
9439;BME280;5176;42.622;25.386;2023-03-04T07:44:41;97283.59;;;8.30;100.00
9439;BME280;5176;42.622;25.386;2023-03-04T07:47:09;97290.25;;;8.36;100.00
9439;BME280;5176;42.622;25.386;2023-03-04T07:49:37;97281.03;;;8.29;100.00
9439;BME280;5176;42.622;25.386;2023-03-04T07:52:06;97281.38;;;8.23;100.00
9439;BME280;5176;42.622;25.386;2023-03-04T07:54:36;97287.28;;;8.26;100.00
9439;BME280;5176;42.622;25.386;2023-03-04T07:57:04;97280.13;;;8.30;100.00
9439;BME280;5176;42.622;25.386;2023-03-04T07:59:33;97279.75;;;8.37;100.00
9439;BME280;5176;42.622;25.386;2023-03-04T08:02:01;97285.53;;;8.42;100.00
9439;BME280;5176;42.622;25.386;2023-03-04T08:04:30;97285.19;;;8.49;100.00
9439;BME280;5176;42.622;25.386;2023-03-04T08:06:59;97283.28;;;8.52;100.00
9439;BME280;5176;42.622;25.386;2023-03-04T08:09:28;97281.59;;;8.51;100.00
9439;BME280;5176;42.622;25.386;2023-03-04T08:11:58;97282.84;;;8.60;100.00
9439;BME280;5176;42.622;25.386;2023-03-04T08:14:27;97296.75;;;8.60;100.00
9439;BME280;5176;42.622;25.386;2023-03-04T08:16:55;97297.50;;;8.62;100.00
9439;BME280;5176;42.622;25.386;2023-03-04T08:19:24;97291.09;;;8.68;100.00
9439;BME280;5176;42.622;25.386;2023-03-04T08:21:53;97285.41;;;8.77;100.00
9439;BME280;5176;42.622;25.386;2023-03-04T08:24:22;97288.66;;;8.81;99.83
9439;BME280;5176;42.622;25.386;2023-03-04T08:26:50;97295.13;;;8.89;99.81
9439;BME280;5176;42.622;25.386;2023-03-04T08:29:22;97290.69;;;8.91;97.70
9439;BME280;5176;42.622;25.386;2023-03-04T08:31:52;97298.53;;;8.91;97.35
9439;BME280;5176;42.622;25.386;2023-03-04T08:34:24;97283.34;;;8.98;98.81
9439;BME280;5176;42.622;25.386;2023-03-04T08:36:53;97297.13;;;9.16;100.00
9439;BME280;5176;42.622;25.386;2023-03-04T08:39:22;97289.69;;;9.24;96.36
9439;BME280;5176;42.622;25.386;2023-03-04T08:41:51;97283.94;;;9.33;97.11
9439;BME280;5176;42.622;25.386;2023-03-04T08:44:21;97278.59;;;9.35;96.51
9439;BME280;5176;42.622;25.386;2023-03-04T08:46:50;97282.19;;;9.48;95.94
9439;BME280;5176;42.622;25.386;2023-03-04T08:49:18;97285.28;;;9.54;95.98
9439;BME280;5176;42.622;25.386;2023-03-04T08:51:47;97277.06;;;9.61;95.70
9439;BME280;5176;42.622;25.386;2023-03-04T08:54:16;97274.41;;;9.76;94.66
9439;BME280;5176;42.622;25.386;2023-03-04T08:56:44;97269.06;;;10.06;92.37
9439;BME280;5176;42.622;25.386;2023-03-04T08:59:13;97269.38;;;10.30;87.04
9439;BME280;5176;42.622;25.386;2023-03-04T09:01:44;97275.69;;;10.55;87.41
9439;BME280;5176;42.622;25.386;2023-03-04T09:04:12;97264.53;;;10.66;83.94
9439;BME280;5176;42.622;25.386;2023-03-04T09:06:41;97272.75;;;10.74;84.66
9439;BME280;5176;42.622;25.386;2023-03-04T09:09:09;97272.75;;;10.74;83.46
9439;BME280;5176;42.622;25.386;2023-03-04T09:11:38;97269.50;;;10.70;83.31
9439;BME280;5176;42.622;25.386;2023-03-04T09:14:06;97269.50;;;10.56;80.09
9439;BME280;5176;42.622;25.386;2023-03-04T09:16:35;97267.22;;;10.37;84.30
9439;BME280;5176;42.622;25.386;2023-03-04T09:19:05;97266.19;;;10.40;84.31
9439;BME280;5176;42.622;25.386;2023-03-04T09:21:34;97258.09;;;10.43;84.58
9439;BME280;5176;42.622;25.386;2023-03-04T09:24:03;97269.16;;;10.48;83.61
9439;BME280;5176;42.622;25.386;2023-03-04T09:26:31;97260.56;;;10.46;84.08
9439;BME280;5176;42.622;25.386;2023-03-04T09:29:01;97266.44;;;10.49;83.88
9439;BME280;5176;42.622;25.386;2023-03-04T09:31:30;97258.59;;;10.35;84.08
9439;BME280;5176;42.622;25.386;2023-03-04T09:33:59;97265.69;;;10.19;84.70
9439;BME280;5176;42.622;25.386;2023-03-04T09:36:29;97259.53;;;9.91;85.33
9439;BME280;5176;42.622;25.386;2023-03-04T09:38:59;97259.06;;;9.85;85.54
9439;BME280;5176;42.622;25.386;2023-03-04T09:41:35;97254.94;;;9.80;86.98
9439;BME280;5176;42.622;25.386;2023-03-04T09:44:11;97245.97;;;9.85;88.63
9439;BME280;5176;42.622;25.386;2023-03-04T09:46:42;97245.59;;;9.91;88.94
9439;BME280;5176;42.622;25.386;2023-03-04T09:49:12;97237.19;;;10.00;87.21
9439;BME280;5176;42.622;25.386;2023-03-04T09:51:48;97243.25;;;10.15;87.23
9439;BME280;5176;42.622;25.386;2023-03-04T09:57:22;97233.34;;;10.34;85.47
9439;BME280;5176;42.622;25.386;2023-03-04T10:00:02;97236.69;;;10.22;84.22
9439;BME280;5176;42.622;25.386;2023-03-04T10:02:41;97233.63;;;10.29;85.42
9439;BME280;5176;42.622;25.386;2023-03-04T10:05:13;97222.56;;;10.39;84.26
9439;BME280;5176;42.622;25.386;2023-03-04T10:07:48;97222.97;;;10.59;84.38
9439;BME280;5176;42.622;25.386;2023-03-04T10:10:22;97217.50;;;10.77;84.57
9439;BME280;5176;42.622;25.386;2023-03-04T10:12:52;97217.34;;;10.93;82.13
9439;BME280;5176;42.622;25.386;2023-03-04T10:15:28;97219.75;;;10.96;80.80
9439;BME280;5176;42.622;25.386;2023-03-04T10:18:02;97214.16;;;10.87;81.78
9439;BME280;5176;42.622;25.386;2023-03-04T10:20:46;97197.88;;;10.82;82.65
9439;BME280;5176;42.622;25.386;2023-03-04T10:23:22;97202.72;;;10.88;80.18
9439;BME280;5176;42.622;25.386;2023-03-04T10:25:52;97197.94;;;10.95;80.61
9439;BME280;5176;42.622;25.386;2023-03-04T10:28:23;97193.88;;;11.04;81.18
9439;BME280;5176;42.622;25.386;2023-03-04T10:30:58;97193.34;;;11.11;80.48
9439;BME280;5176;42.622;25.386;2023-03-04T10:33:28;97183.28;;;11.18;80.54
9439;BME280;5176;42.622;25.386;2023-03-04T10:36:00;97185.91;;;11.18;79.40
9439;BME280;5176;42.622;25.386;2023-03-04T10:38:33;97187.16;;;11.12;77.88
9439;BME280;5176;42.622;25.386;2023-03-04T10:41:11;97181.19;;;11.10;77.45
9439;BME280;5176;42.622;25.386;2023-03-04T10:43:40;97180.97;;;11.13;77.70
9439;BME280;5176;42.622;25.386;2023-03-04T10:46:11;97166.78;;;11.16;77.80
9439;BME280;5176;42.622;25.386;2023-03-04T10:48:42;97161.97;;;11.23;80.33
9439;BME280;5176;42.622;25.386;2023-03-04T10:51:15;97162.31;;;11.18;78.66
9439;BME280;5176;42.622;25.386;2023-03-04T10:53:48;97160.31;;;11.22;79.07
9439;BME280;5176;42.622;25.386;2023-03-04T10:56:36;97157.78;;;11.20;77.53
9439;BME280;5176;42.622;25.386;2023-03-04T10:59:37;97150.44;;;11.12;76.58
9439;BME280;5176;42.622;25.386;2023-03-04T11:02:21;97146.56;;;11.05;77.15
9439;BME280;5176;42.622;25.386;2023-03-04T11:04:53;97143.53;;;11.11;77.76
9439;BME280;5176;42.622;25.386;2023-03-04T11:07:23;97141.22;;;11.19;78.13
9439;BME280;5176;42.622;25.386;2023-03-04T11:09:54;97143.84;;;11.19;74.56
9439;BME280;5176;42.622;25.386;2023-03-04T11:12:33;97136.06;;;11.18;74.88
9439;BME280;5176;42.622;25.386;2023-03-04T11:15:03;97132.91;;;11.13;76.12
9439;BME280;5176;42.622;25.386;2023-03-04T11:17:42;97127.13;;;11.08;77.40
9439;BME280;5176;42.622;25.386;2023-03-04T11:20:15;97125.22;;;11.10;75.97
9439;BME280;5176;42.622;25.386;2023-03-04T11:22:45;97118.31;;;11.09;75.96
9439;BME280;5176;42.622;25.386;2023-03-04T11:25:24;97109.41;;;10.99;76.94
9439;BME280;5176;42.622;25.386;2023-03-04T11:27:56;97113.47;;;11.03;76.79
9439;BME280;5176;42.622;25.386;2023-03-04T11:30:37;97108.34;;;11.01;78.43
9439;BME280;5176;42.622;25.386;2023-03-04T11:33:14;97110.78;;;11.17;79.68
9439;BME280;5176;42.622;25.386;2023-03-04T11:36:02;97107.63;;;11.25;77.23
9439;BME280;5176;42.622;25.386;2023-03-04T11:38:36;97101.31;;;11.27;76.46
9439;BME280;5176;42.622;25.386;2023-03-04T11:41:13;97094.09;;;11.18;74.78
9439;BME280;5176;42.622;25.386;2023-03-04T11:43:45;97094.94;;;11.18;76.61
9439;BME280;5176;42.622;25.386;2023-03-04T11:52:39;97082.13;;;11.01;76.99
9439;BME280;5176;42.622;25.386;2023-03-04T11:55:32;97086.41;;;11.02;78.55
9439;BME280;5176;42.622;25.386;2023-03-04T11:58:17;97082.94;;;11.02;78.09
9439;BME280;5176;42.622;25.386;2023-03-04T12:00:53;97083.69;;;11.16;80.02
9439;BME280;5176;42.622;25.386;2023-03-04T12:03:52;97083.59;;;11.18;76.26
9439;BME280;5176;42.622;25.386;2023-03-04T12:06:34;97082.13;;;11.27;77.06
9439;BME280;5176;42.622;25.386;2023-03-04T12:09:24;97082.75;;;11.30;75.76
9439;BME280;5176;42.622;25.386;2023-03-04T12:12:09;97080.56;;;11.37;75.87
9439;BME280;5176;42.622;25.386;2023-03-04T12:14:52;97080.75;;;11.46;75.65
9439;BME280;5176;42.622;25.386;2023-03-04T12:17:42;97077.03;;;11.49;74.31
9439;BME280;5176;42.622;25.386;2023-03-04T12:23:28;97071.59;;;11.52;76.42
9439;BME280;5176;42.622;25.386;2023-03-04T12:26:07;97065.00;;;11.46;75.57
9439;BME280;5176;42.622;25.386;2023-03-04T12:28:50;97058.78;;;11.48;76.28
9439;BME280;5176;42.622;25.386;2023-03-04T12:31:35;97065.28;;;11.55;76.52
9439;BME280;5176;42.622;25.386;2023-03-04T12:34:32;97062.13;;;11.50;75.09
9439;BME280;5176;42.622;25.386;2023-03-04T12:37:23;97057.94;;;11.60;77.03
9439;BME280;5176;42.622;25.386;2023-03-04T12:40:14;97066.88;;;11.57;75.92
9439;BME280;5176;42.622;25.386;2023-03-04T12:42:57;97056.03;;;11.49;75.55
9439;BME280;5176;42.622;25.386;2023-03-04T12:45:36;97062.78;;;11.53;74.96
9439;BME280;5176;42.622;25.386;2023-03-04T12:48:19;97049.22;;;11.59;74.92
9439;BME280;5176;42.622;25.386;2023-03-04T12:51:04;97046.56;;;11.72;76.19
9439;BME280;5176;42.622;25.386;2023-03-04T12:53:41;97034.78;;;11.78;75.97
9439;BME280;5176;42.622;25.386;2023-03-04T12:56:21;97040.34;;;11.86;75.45
9439;BME280;5176;42.622;25.386;2023-03-04T12:58:51;97034.03;;;11.88;75.69
9439;BME280;5176;42.622;25.386;2023-03-04T13:01:24;97028.22;;;11.96;75.13
9439;BME280;5176;42.622;25.386;2023-03-04T13:04:02;97029.44;;;12.03;73.73
9439;BME280;5176;42.622;25.386;2023-03-04T13:06:38;97018.72;;;12.06;74.00
9439;BME280;5176;42.622;25.386;2023-03-04T13:09:16;97024.75;;;11.95;74.72
9439;BME280;5176;42.622;25.386;2023-03-04T13:11:54;97019.22;;;11.87;75.33
9439;BME280;5176;42.622;25.386;2023-03-04T13:14:33;97011.72;;;11.94;75.49
9439;BME280;5176;42.622;25.386;2023-03-04T13:20:31;97008.03;;;11.96;73.67
9439;BME280;5176;42.622;25.386;2023-03-04T13:23:00;96997.66;;;11.95;75.75
9439;BME280;5176;42.622;25.386;2023-03-04T13:25:36;97000.53;;;12.03;75.28
9439;BME280;5176;42.622;25.386;2023-03-04T13:28:23;96994.28;;;12.17;77.00
9439;BME280;5176;42.622;25.386;2023-03-04T13:31:17;96997.97;;;12.14;75.01
9439;BME280;5176;42.622;25.386;2023-03-04T13:33:50;96998.09;;;11.89;74.71
9439;BME280;5176;42.622;25.386;2023-03-04T13:39:36;96993.69;;;11.77;75.30
9439;BME280;5176;42.622;25.386;2023-03-04T13:42:37;96992.66;;;11.79;74.19
9439;BME280;5176;42.622;25.386;2023-03-04T13:45:30;96988.50;;;11.64;74.13
9439;BME280;5176;42.622;25.386;2023-03-04T13:48:03;96981.34;;;11.66;75.85
9439;BME280;5176;42.622;25.386;2023-03-04T13:50:36;96977.66;;;11.68;75.56
9439;BME280;5176;42.622;25.386;2023-03-04T13:53:32;96973.47;;;11.66;75.29
9439;BME280;5176;42.622;25.386;2023-03-04T13:56:27;96958.44;;;11.68;75.87